FRIANT DAM (MILLERTON) (MIL)

Elevation: 581' · SAN JOAQUIN R basin · Operator: US Bureau of Reclamation

Provisional data, subject to change.
Query executed Tuesday at 11:13:32   clock

Select a sensor type for a plot of data.
Note: Reservoir Flows are daily averages.

Earlier

Date RES ELE    STORAGE    RES CHG    TOC STO    ABV TOC    OUTFLOW    INFLOW    EVAP    FNF    RIV REL    PPT INC    SPILL   
 FEET   AF   AF   AF   AF   CFS   CFS   CFS   CFS   CFS   INCHES   CFS  
04/04/2016 534.58 332027 -4985 520500 -188473 4717 2227 23 3662 412 0.00 0
04/05/2016 533.01 326106 -5921 520500 -194394 4946 1982 21 3793 464 0.00 0
04/06/2016 531.36 319958 -6148 520500 -200542 4886 1805 19 4161 329 0.00 0
04/07/2016 529.84 314352 -5606 520500 -206148 4552 1737 11 4406 261 0.00 0
04/08/2016 528.89 310864 -3488 520500 -209636 4250 2503 12 4170 393 1.88 0
04/09/2016 528.86 310754 -110 520500 -209746 3471 3424 8 6512 328 0.42 0
04/10/2016 528.37 308966 -1788 520500 -211534 3265 2389 25 4835 262 0.00 0
04/11/2016 527.74 306673 -2293 520500 -213827 3084 1941 13 4014 262 0.00 0
04/12/2016 527.24 304862 -1811 520500 -215638 2937 2038 14 3929 252 0.00 0
04/13/2016 526.97 303885 -977 520500 -216615 2725 2258 26 4123 261 0.00 0
04/14/2016 526.72 302986 -899 520500 -217514 2776 2350 27 4008 261 0.00 0
04/15/2016 526.35 301655 -1331 520500 -218845 2907 2260 24 3550 261 0.00 0
04/16/2016 525.89 300003 -1652 520500 -220497 2949 2138 22 3176 261 0.00 0
04/17/2016 525.30 297897 -2106 520500 -222603 3150 2116 28 3454 260 0.00 0
04/18/2016 524.72 295834 -2063 520500 -224666 3366 2351 25 4136 262 0.00 0
04/19/2016 524.01 293317 -2517 520500 -227183 3490 2253 32 4934 261 0.00 0
04/20/2016 523.22 290537 -2780 520500 -229963 3760 2384 26 5281 394 0.00 0
04/21/2016 522.56 288227 -2310 520500 -232273 3391 2252 26 5162 327 0.00 0
04/22/2016 522.37 287563 -664 520500 -232937 2661 2347 21 5408 260 0.22 0
04/23/2016 522.49 287982 419 520500 -232518 1919 2147 17 3972 260 0.00 0
04/24/2016 522.73 288820 838 520500 -231680 1833 2283 28 3990 260 0.00 0
04/25/2016 522.78 288995 175 520500 -231505 2150 2257 19 3518 388 0.00 0
04/26/2016 522.91 289449 454 520500 -231051 2034 2283 20 2287 337 0.00 0
04/27/2016 523.22 290537 1088 520500 -229963 1684 2252 19 3195 276 0.00 0
04/28/2016 523.49 291487 950 520500 -229013 1631 2125 15 2982 407 0.00 0
04/29/2016 523.84 292719 1232 520500 -227781 1348 1994 25 2675 330 0.00 0
04/30/2016 524.36 294558 1839 520500 -225942 1126 2069 16 3130 277 0.00 0
05/01/2016 524.82 296188 1630 520500 -224312 1305 2159 32 3119 278 0.00 0
05/02/2016 525.11 297219 1031 520500 -223281 1636 2193 37 3132 408 0.00 0
05/03/2016 -- -- -- -- -- -- -- -- -- -- -- --

Later | Latest

Warning! This data is preliminary and subject to revision.

Show MIL Map | Plot MIL Data | 1 Month MIL Data | Real-Time MIL Data | MIL Info